createdAt,value
2023-04-29T00:00:16.615Z,0.00
2023-04-29T00:01:16.594Z,0.00
2023-04-29T00:02:16.630Z,0.00
2023-04-29T00:03:16.669Z,0.00
2023-04-29T00:04:16.718Z,0.00
2023-04-29T00:05:16.665Z,0.00
2023-04-29T00:06:16.617Z,0.00
2023-04-29T00:07:16.535Z,0.00
2023-04-29T00:08:16.520Z,0.00
2023-04-29T00:09:16.494Z,0.00
2023-04-29T00:10:16.495Z,0.00
2023-04-29T00:11:16.500Z,0.00
2023-04-29T00:12:16.475Z,0.00
2023-04-29T00:13:16.464Z,0.00
2023-04-29T00:14:16.471Z,0.00
2023-04-29T00:15:16.447Z,0.00
2023-04-29T00:16:16.482Z,0.00
2023-04-29T00:17:16.436Z,0.00
2023-04-29T00:18:16.421Z,0.00
2023-04-29T00:19:16.410Z,0.00
2023-04-29T00:20:16.410Z,0.00
2023-04-29T00:21:16.450Z,0.00
2023-04-29T00:22:16.426Z,0.00
2023-04-29T00:23:16.379Z,0.00
2023-04-29T00:24:16.375Z,0.00
2023-04-29T00:25:16.381Z,0.00
2023-04-29T00:26:16.402Z,0.00
2023-04-29T00:27:16.349Z,0.00
2023-04-29T00:28:16.345Z,0.00
2023-04-29T00:29:16.332Z,0.00
2023-04-29T00:30:16.329Z,0.00
2023-04-29T00:31:16.361Z,0.00
2023-04-29T00:32:16.306Z,0.00
2023-04-29T00:33:16.309Z,0.00
2023-04-29T00:34:16.293Z,0.00
2023-04-29T00:35:16.282Z,0.00
2023-04-29T00:36:16.284Z,0.00
2023-04-29T00:37:16.295Z,0.00
2023-04-29T00:38:16.276Z,0.00
2023-04-29T00:39:16.252Z,0.00
2023-04-29T00:40:16.257Z,0.00
2023-04-29T00:41:16.242Z,0.00
2023-04-29T00:42:16.258Z,0.00
2023-04-29T00:43:16.224Z,0.00
2023-04-29T00:44:16.218Z,0.00
2023-04-29T00:45:16.207Z,0.00
2023-04-29T00:46:16.257Z,0.00
2023-04-29T00:47:16.224Z,0.00
2023-04-29T00:48:16.207Z,0.00
2023-04-29T00:49:16.197Z,0.00
2023-04-29T00:50:16.176Z,0.00
2023-04-29T00:51:16.183Z,0.00
2023-04-29T00:52:17.154Z,0.00
2023-04-29T00:53:16.158Z,0.00
2023-04-29T00:54:16.139Z,0.00
2023-04-29T00:55:16.131Z,0.00
2023-04-29T00:56:16.150Z,0.00
2023-04-29T00:57:16.117Z,0.00
2023-04-29T00:58:16.107Z,0.00
2023-04-29T00:59:16.110Z,0.00
2023-04-29T01:00:16.090Z,0.00
2023-04-29T01:01:16.149Z,0.00
2023-04-29T01:02:16.079Z,0.00
2023-04-29T01:03:16.262Z,0.00
2023-04-29T01:04:16.114Z,0.00
2023-04-29T01:05:16.062Z,0.00
2023-04-29T01:06:16.093Z,0.00
2023-04-29T01:07:16.071Z,0.00
2023-04-29T01:08:18.294Z,0.00
2023-04-29T01:09:17.031Z,0.00
2023-04-29T01:10:16.029Z,0.00
2023-04-29T01:11:16.015Z,0.00
2023-04-29T01:12:16.033Z,0.00
2023-04-29T01:13:15.999Z,0.00
2023-04-29T01:14:16.002Z,0.00
2023-04-29T01:15:15.983Z,0.00
2023-04-29T01:16:15.999Z,0.00
2023-04-29T01:17:15.990Z,0.00
2023-04-29T01:18:16.012Z,0.00
2023-04-29T01:19:15.957Z,0.00
2023-04-29T01:20:15.956Z,0.00
2023-04-29T01:21:15.936Z,0.00
2023-04-29T01:22:15.949Z,0.00
2023-04-29T01:23:15.918Z,0.00
2023-04-29T01:24:15.914Z,0.00
2023-04-29T01:25:15.903Z,0.00
2023-04-29T01:26:15.894Z,0.00
2023-04-29T01:27:15.919Z,0.00
2023-04-29T01:28:15.876Z,0.00
2023-04-29T01:29:15.874Z,0.00
2023-04-29T01:30:15.875Z,0.00
2023-04-29T01:31:15.904Z,0.00
2023-04-29T01:32:15.877Z,0.00
2023-04-29T01:33:15.878Z,0.00
2023-04-29T01:34:15.855Z,0.00
2023-04-29T01:35:15.831Z,0.00
2023-04-29T01:36:15.817Z,0.00
2023-04-29T01:37:15.835Z,0.00
2023-04-29T01:38:15.809Z,0.00
2023-04-29T01:39:15.799Z,0.00
2023-04-29T01:40:15.787Z,0.00
2023-04-29T01:41:15.786Z,0.00
2023-04-29T01:42:15.790Z,0.00
2023-04-29T01:43:15.768Z,0.00
2023-04-29T01:44:15.746Z,0.00
2023-04-29T01:45:15.742Z,0.00
2023-04-29T01:46:15.754Z,0.00
2023-04-29T01:47:15.802Z,0.00
2023-04-29T01:48:16.720Z,0.00
2023-04-29T01:49:15.710Z,0.00
2023-04-29T01:50:15.704Z,0.00
2023-04-29T01:51:15.710Z,0.00
2023-04-29T01:52:15.830Z,0.00
2023-04-29T01:53:15.684Z,0.00
2023-04-29T01:54:15.680Z,0.00
2023-04-29T01:55:15.668Z,0.00
2023-04-29T01:56:15.664Z,0.00
2023-04-29T01:57:15.841Z,0.00
2023-04-29T01:58:15.632Z,0.00
2023-04-29T01:59:16.650Z,0.00
2023-04-29T02:00:15.637Z,0.00
2023-04-29T02:01:15.689Z,0.00
2023-04-29T02:02:15.877Z,0.00
2023-04-29T02:03:15.687Z,0.00
2023-04-29T02:04:15.635Z,0.00
2023-04-29T02:05:16.605Z,0.00
2023-04-29T02:06:15.588Z,0.00
2023-04-29T02:07:15.863Z,0.00
2023-04-29T02:08:15.577Z,0.00
2023-04-29T02:09:15.564Z,0.00
2023-04-29T02:10:15.561Z,0.00
2023-04-29T02:11:15.553Z,0.00
2023-04-29T02:12:15.905Z,0.00
2023-04-29T02:13:15.551Z,0.00
2023-04-29T02:14:15.536Z,0.00
2023-04-29T02:15:15.520Z,0.00
2023-04-29T02:16:15.559Z,0.00
2023-04-29T02:17:15.924Z,0.00
2023-04-29T02:18:15.499Z,0.00
2023-04-29T02:19:15.495Z,0.00
2023-04-29T02:20:15.484Z,0.00
2023-04-29T02:21:15.478Z,0.00
2023-04-29T02:22:15.919Z,0.00
2023-04-29T02:23:15.461Z,0.00
2023-04-29T02:24:15.455Z,0.00
2023-04-29T02:25:15.446Z,0.00
2023-04-29T02:26:15.465Z,0.00
2023-04-29T02:27:16.478Z,0.00
2023-04-29T02:28:15.427Z,0.00
2023-04-29T02:29:15.420Z,0.00
2023-04-29T02:30:15.416Z,0.00
2023-04-29T02:31:15.405Z,0.00
2023-04-29T02:32:15.600Z,0.00
2023-04-29T02:33:15.453Z,0.00
2023-04-29T02:34:15.378Z,0.00
2023-04-29T02:35:15.379Z,0.00
2023-04-29T02:36:15.366Z,0.00
2023-04-29T02:37:15.384Z,0.00
2023-04-29T02:38:15.348Z,0.00
2023-04-29T02:39:15.347Z,0.00
2023-04-29T02:40:15.341Z,0.00
2023-04-29T02:41:15.328Z,0.00
2023-04-29T02:42:15.355Z,0.00
2023-04-29T02:43:15.336Z,0.00
2023-04-29T02:44:15.309Z,0.00
2023-04-29T02:45:15.289Z,0.00
2023-04-29T02:46:15.326Z,0.00
2023-04-29T02:47:15.288Z,0.00
2023-04-29T02:48:15.299Z,0.00
2023-04-29T02:49:15.265Z,0.00
2023-04-29T02:50:15.249Z,0.00
2023-04-29T02:51:15.246Z,0.00
2023-04-29T02:52:15.232Z,0.00
2023-04-29T02:53:15.256Z,0.00
2023-04-29T02:54:15.218Z,0.00
2023-04-29T02:55:15.212Z,0.00
2023-04-29T02:56:15.201Z,0.00
2023-04-29T02:57:15.190Z,0.00
2023-04-29T02:58:15.217Z,0.00
2023-04-29T02:59:15.180Z,0.00
2023-04-29T03:00:15.173Z,0.00
2023-04-29T03:01:15.168Z,0.00
2023-04-29T03:02:15.199Z,0.00
2023-04-29T03:03:15.272Z,0.00
2023-04-29T03:04:15.281Z,0.00
2023-04-29T03:05:15.136Z,0.00
2023-04-29T03:06:15.123Z,0.00
2023-04-29T03:07:15.112Z,0.00
2023-04-29T03:08:15.131Z,0.00
2023-04-29T03:09:15.097Z,0.00
2023-04-29T03:10:15.095Z,0.00
2023-04-29T03:11:15.091Z,0.00
2023-04-29T03:12:15.080Z,0.00
2023-04-29T03:13:15.096Z,0.00
2023-04-29T03:14:15.079Z,0.00
2023-04-29T03:15:15.066Z,0.00
2023-04-29T03:16:15.069Z,0.00
2023-04-29T03:17:15.038Z,0.00
2023-04-29T03:18:15.055Z,0.00
2023-04-29T03:19:15.025Z,0.00
2023-04-29T03:20:15.013Z,0.00
2023-04-29T03:21:14.999Z,0.00
2023-04-29T03:22:14.998Z,0.00
2023-04-29T03:23:15.009Z,0.00
2023-04-29T03:24:14.977Z,0.00
2023-04-29T03:25:14.980Z,0.00
2023-04-29T03:26:14.974Z,0.00
2023-04-29T03:27:14.954Z,0.00
2023-04-29T03:28:14.967Z,0.00
2023-04-29T03:29:14.931Z,0.00
2023-04-29T03:30:14.924Z,0.00
2023-04-29T03:31:14.958Z,0.00
2023-04-29T03:32:14.907Z,0.00
2023-04-29T03:33:14.941Z,0.00
2023-04-29T03:34:14.888Z,0.00
2023-04-29T03:35:15.920Z,4.00
2023-04-29T03:36:15.881Z,0.00
2023-04-29T03:37:14.871Z,4.00
2023-04-29T03:38:14.882Z,4.00
2023-04-29T03:39:14.872Z,8.00
2023-04-29T03:40:14.852Z,8.00
2023-04-29T03:41:14.845Z,8.00
2023-04-29T03:42:14.840Z,12.00
2023-04-29T03:43:14.851Z,12.00
2023-04-29T03:44:14.820Z,12.00
2023-04-29T03:45:14.808Z,16.00
2023-04-29T03:46:14.868Z,12.00
2023-04-29T03:47:14.795Z,20.00
2023-04-29T03:48:14.824Z,20.00
2023-04-29T03:49:14.785Z,24.00
2023-04-29T03:50:14.788Z,32.00
2023-04-29T03:51:14.772Z,36.00
2023-04-29T03:52:14.755Z,36.00
2023-04-29T03:53:14.789Z,40.00
2023-04-29T03:54:14.737Z,40.00
2023-04-29T03:55:14.738Z,40.00
2023-04-29T03:56:16.313Z,40.00
2023-04-29T03:57:14.712Z,40.00
2023-04-29T03:58:14.735Z,48.00
2023-04-29T03:59:14.705Z,52.00
2023-04-29T04:00:14.685Z,56.00
2023-04-29T04:01:14.683Z,60.00
2023-04-29T04:02:14.683Z,56.00
2023-04-29T04:03:14.788Z,68.00
2023-04-29T04:04:14.851Z,72.00
2023-04-29T04:05:14.824Z,76.00
2023-04-29T04:06:14.643Z,72.00
2023-04-29T04:07:14.637Z,84.00
2023-04-29T04:08:14.622Z,96.00
2023-04-29T04:09:15.640Z,108.00
2023-04-29T04:10:14.617Z,124.00
2023-04-29T04:11:14.602Z,144.00
2023-04-29T04:12:14.595Z,156.00
2023-04-29T04:13:14.583Z,168.00
2023-04-29T04:14:14.602Z,184.00
2023-04-29T04:15:14.570Z,200.00
2023-04-29T04:16:15.641Z,196.00
2023-04-29T04:17:14.555Z,192.00
2023-04-29T04:18:14.586Z,188.00
2023-04-29T04:19:14.565Z,188.00
2023-04-29T04:20:14.540Z,192.00
2023-04-29T04:21:14.523Z,196.00
2023-04-29T04:22:14.522Z,196.00
2023-04-29T04:23:14.511Z,192.00
2023-04-29T04:24:14.530Z,184.00
2023-04-29T04:25:14.497Z,200.00
2023-04-29T04:26:14.488Z,244.00
2023-04-29T04:27:14.480Z,300.00
2023-04-29T04:28:14.482Z,336.00
2023-04-29T04:29:14.500Z,364.00
2023-04-29T04:30:14.464Z,380.00
2023-04-29T04:31:14.493Z,352.00
2023-04-29T04:32:14.442Z,320.00
2023-04-29T04:33:14.437Z,292.00
2023-04-29T04:34:14.471Z,284.00
2023-04-29T04:35:14.422Z,280.00
2023-04-29T04:36:14.410Z,296.00
2023-04-29T04:37:14.408Z,340.00
2023-04-29T04:38:14.408Z,356.00
2023-04-29T04:39:14.416Z,328.00
2023-04-29T04:40:14.387Z,388.00
2023-04-29T04:41:14.376Z,432.00
2023-04-29T04:42:14.367Z,476.00
2023-04-29T04:43:14.357Z,512.00
2023-04-29T04:44:15.383Z,648.00
2023-04-29T04:45:14.346Z,876.00
2023-04-29T04:46:14.395Z,1300.00
2023-04-29T04:47:14.332Z,1692.00
2023-04-29T04:48:14.323Z,2048.00
2023-04-29T04:49:14.342Z,2040.00
2023-04-29T04:50:14.313Z,2196.00
2023-04-29T04:51:14.331Z,2220.00
2023-04-29T04:52:14.288Z,2188.00
2023-04-29T04:53:14.284Z,2124.00
2023-04-29T04:54:14.298Z,1976.00
2023-04-29T04:55:15.163Z,1928.00
2023-04-29T04:56:14.265Z,1884.00
2023-04-29T04:57:14.263Z,1800.00
2023-04-29T04:58:14.246Z,1808.00
2023-04-29T04:59:14.265Z,1928.00
2023-04-29T05:00:14.230Z,2024.00
2023-04-29T05:01:14.255Z,2076.00
2023-04-29T05:02:14.226Z,2084.00
2023-04-29T05:03:14.341Z,2036.00
2023-04-29T05:04:14.318Z,1984.00
2023-04-29T05:05:14.186Z,1940.00
2023-04-29T05:06:14.183Z,1900.00
2023-04-29T05:07:14.176Z,1884.00
2023-04-29T05:08:14.170Z,1920.00
2023-04-29T05:09:14.191Z,2004.00
2023-04-29T05:10:14.162Z,2016.00
2023-04-29T05:11:14.222Z,1832.00
2023-04-29T05:12:14.156Z,1616.00
2023-04-29T05:13:14.131Z,1516.00
2023-04-29T05:14:14.151Z,1452.00
2023-04-29T05:15:14.122Z,1396.00
2023-04-29T05:16:14.130Z,1420.00
2023-04-29T05:17:14.101Z,1424.00
2023-04-29T05:18:14.102Z,1428.00
2023-04-29T05:19:14.107Z,1492.00
2023-04-29T05:20:14.084Z,1644.00
2023-04-29T05:21:15.994Z,1740.00
2023-04-29T05:22:14.061Z,1724.00
2023-04-29T05:23:14.062Z,1636.00
2023-04-29T05:24:14.093Z,1484.00
2023-04-29T05:25:14.047Z,1416.00
2023-04-29T05:26:14.035Z,1380.00
2023-04-29T05:27:14.021Z,1336.00
2023-04-29T05:28:14.023Z,1332.00
2023-04-29T05:29:14.032Z,1332.00
2023-04-29T05:30:14.007Z,1324.00
2023-04-29T05:31:14.054Z,1300.00
2023-04-29T05:32:13.988Z,1276.00
2023-04-29T05:33:13.978Z,1256.00
2023-04-29T05:34:14.000Z,1244.00
2023-04-29T05:35:13.976Z,1228.00
2023-04-29T05:36:13.961Z,1240.00
2023-04-29T05:37:13.983Z,1236.00
2023-04-29T05:38:13.951Z,1220.00
2023-04-29T05:39:13.964Z,1232.00
2023-04-29T05:40:13.916Z,1280.00
2023-04-29T05:41:13.915Z,1384.00
2023-04-29T05:42:13.903Z,1464.00
2023-04-29T05:43:13.896Z,1536.00
2023-04-29T05:44:13.915Z,1600.00
2023-04-29T05:45:13.879Z,1704.00
2023-04-29T05:46:13.923Z,1824.00
2023-04-29T05:47:13.875Z,1948.00
2023-04-29T05:48:13.868Z,2068.00
2023-04-29T05:49:13.877Z,2200.00
2023-04-29T05:50:13.859Z,2368.00
2023-04-29T05:51:13.836Z,2496.00
2023-04-29T05:52:13.840Z,2652.00
2023-04-29T05:53:13.842Z,2696.00
2023-04-29T05:54:13.833Z,2744.00
2023-04-29T05:55:13.799Z,2968.00
2023-04-29T05:56:13.793Z,3176.00
2023-04-29T05:57:13.787Z,3184.00
2023-04-29T05:58:13.776Z,3168.00
2023-04-29T05:59:13.853Z,3248.00
2023-04-29T06:00:13.763Z,3436.00
2023-04-29T06:01:13.759Z,3580.00
2023-04-29T06:02:13.778Z,3664.00
2023-04-29T06:03:13.827Z,3848.00
2023-04-29T06:04:14.039Z,3588.00
2023-04-29T06:05:13.910Z,3464.00
2023-04-29T06:06:13.960Z,3512.00
2023-04-29T06:07:13.711Z,3500.00
2023-04-29T06:08:13.696Z,3520.00
2023-04-29T06:09:26.434Z,3668.00
2023-04-29T06:10:15.686Z,3832.00
2023-04-29T06:11:13.679Z,3824.00
2023-04-29T06:12:13.676Z,3636.00
2023-04-29T06:13:13.665Z,3536.00
2023-04-29T06:14:13.685Z,3496.00
2023-04-29T06:15:13.837Z,3436.00
2023-04-29T06:16:13.681Z,3300.00
2023-04-29T06:17:13.635Z,3212.00
2023-04-29T06:18:13.631Z,3176.00
2023-04-29T06:19:13.670Z,3192.00
2023-04-29T06:20:13.611Z,3180.00
2023-04-29T06:21:13.596Z,3164.00
2023-04-29T06:22:13.600Z,3140.00
2023-04-29T06:23:13.589Z,3076.00
2023-04-29T06:24:13.608Z,2984.00
2023-04-29T06:25:13.573Z,2844.00
2023-04-29T06:26:13.571Z,2680.00
2023-04-29T06:27:13.555Z,2540.00
2023-04-29T06:28:13.559Z,2424.00
2023-04-29T06:29:13.577Z,2344.00
2023-04-29T06:30:13.534Z,2280.00
2023-04-29T06:31:13.570Z,2204.00
2023-04-29T06:32:13.517Z,2152.00
2023-04-29T06:33:13.504Z,2080.00
2023-04-29T06:34:13.518Z,2072.00
2023-04-29T06:35:13.497Z,2072.00
2023-04-29T06:36:13.490Z,2040.00
2023-04-29T06:37:13.480Z,2008.00
2023-04-29T06:38:13.465Z,2012.00
2023-04-29T06:39:13.491Z,2036.00
2023-04-29T06:40:13.469Z,2064.00
2023-04-29T06:41:13.445Z,2100.00
2023-04-29T06:42:13.434Z,2152.00
2023-04-29T06:43:13.435Z,2220.00
2023-04-29T06:44:13.452Z,2288.00
2023-04-29T06:45:13.416Z,2376.00
2023-04-29T06:46:13.409Z,2448.00
2023-04-29T06:47:13.608Z,2528.00
2023-04-29T06:48:13.428Z,2624.00
2023-04-29T06:49:13.381Z,2744.00
2023-04-29T06:50:13.409Z,2868.00
2023-04-29T06:51:13.371Z,3024.00
2023-04-29T06:52:13.356Z,3192.00
2023-04-29T06:53:13.354Z,3352.00
2023-04-29T06:54:13.349Z,3500.00
2023-04-29T06:55:13.359Z,3612.00
2023-04-29T06:56:15.071Z,3668.00
2023-04-29T06:57:13.346Z,3724.00
2023-04-29T06:58:13.315Z,3764.00
2023-04-29T06:59:13.315Z,3872.00
2023-04-29T07:00:13.324Z,3832.00
2023-04-29T07:01:13.306Z,3732.00
2023-04-29T07:02:13.292Z,3560.00
2023-04-29T07:03:13.373Z,3328.00
2023-04-29T07:04:13.328Z,3100.00
2023-04-29T07:05:13.303Z,2852.00
2023-04-29T07:06:13.254Z,2696.00
2023-04-29T07:07:13.243Z,2616.00
2023-04-29T07:08:13.292Z,2576.00
2023-04-29T07:09:13.229Z,2584.00
2023-04-29T07:10:13.277Z,2528.00
2023-04-29T07:11:13.222Z,2448.00
2023-04-29T07:12:13.222Z,2312.00
2023-04-29T07:13:13.202Z,2180.00
2023-04-29T07:14:13.197Z,2120.00
2023-04-29T07:15:13.212Z,2076.00
2023-04-29T07:16:13.225Z,2116.00
2023-04-29T07:17:14.196Z,2236.00
2023-04-29T07:18:14.172Z,2384.00
2023-04-29T07:19:13.160Z,2592.00
2023-04-29T07:20:13.171Z,2796.00
2023-04-29T07:21:13.137Z,2984.00
2023-04-29T07:22:13.150Z,3188.00
2023-04-29T07:23:13.130Z,3324.00
2023-04-29T07:24:13.113Z,3340.00
2023-04-29T07:25:13.139Z,3276.00
2023-04-29T07:26:13.136Z,3128.00
2023-04-29T07:27:13.095Z,2992.00
2023-04-29T07:28:13.088Z,2884.00
2023-04-29T07:29:13.078Z,2880.00
2023-04-29T07:30:13.095Z,2892.00
2023-04-29T07:31:13.080Z,2792.00
2023-04-29T07:32:13.054Z,2596.00
2023-04-29T07:33:13.050Z,2520.00
2023-04-29T07:34:13.040Z,2672.00
2023-04-29T07:35:13.063Z,2712.00
2023-04-29T07:36:13.028Z,2644.00
2023-04-29T07:37:13.015Z,2644.00
2023-04-29T07:38:13.039Z,2716.00
2023-04-29T07:39:13.000Z,2896.00
2023-04-29T07:40:13.025Z,3428.00
2023-04-29T07:41:12.979Z,4296.00
2023-04-29T07:42:12.990Z,4976.00
2023-04-29T07:43:12.964Z,4872.00
2023-04-29T07:44:12.958Z,4492.00
2023-04-29T07:45:12.980Z,4356.00
2023-04-29T07:46:12.993Z,4144.00
2023-04-29T07:47:12.941Z,3748.00
2023-04-29T07:48:12.922Z,3404.00
2023-04-29T07:49:12.913Z,3212.00
2023-04-29T07:50:12.945Z,3176.00
2023-04-29T07:51:12.915Z,3272.00
2023-04-29T07:52:12.891Z,3372.00
2023-04-29T07:53:12.895Z,3476.00
2023-04-29T07:54:12.885Z,3524.00
2023-04-29T07:55:12.864Z,3536.00
2023-04-29T07:56:12.886Z,3600.00
2023-04-29T07:57:12.854Z,3700.00
2023-04-29T07:58:12.842Z,3804.00
2023-04-29T07:59:12.843Z,3880.00
2023-04-29T08:00:12.826Z,3956.00
2023-04-29T08:01:12.851Z,4092.00
2023-04-29T08:02:12.875Z,4252.00
2023-04-29T08:03:12.937Z,4236.00
2023-04-29T08:04:13.009Z,4248.00
2023-04-29T08:05:12.914Z,4420.00
2023-04-29T08:06:13.087Z,4612.00
2023-04-29T08:07:12.768Z,4748.00
2023-04-29T08:08:12.760Z,4888.00
2023-04-29T08:09:12.756Z,5096.00
2023-04-29T08:10:12.752Z,5384.00
2023-04-29T08:11:12.762Z,5756.00
2023-04-29T08:12:12.736Z,6132.00
2023-04-29T08:13:12.722Z,6320.00
2023-04-29T08:14:12.711Z,6280.00
2023-04-29T08:15:12.700Z,6140.00
2023-04-29T08:16:12.789Z,5952.00
2023-04-29T08:17:12.691Z,5628.00
2023-04-29T08:18:12.684Z,5376.00
2023-04-29T08:19:12.790Z,4936.00
2023-04-29T08:20:12.669Z,4560.00
2023-04-29T08:21:12.689Z,4244.00
2023-04-29T08:22:12.650Z,4048.00
2023-04-29T08:23:12.642Z,3696.00
2023-04-29T08:24:12.637Z,3392.00
2023-04-29T08:25:12.645Z,3272.00
2023-04-29T08:26:12.642Z,3236.00
2023-04-29T08:27:12.611Z,3160.00
2023-04-29T08:28:12.604Z,2980.00
2023-04-29T08:29:12.600Z,2800.00
2023-04-29T08:30:12.585Z,2752.00
2023-04-29T08:31:12.782Z,2696.00
2023-04-29T08:32:12.572Z,2588.00
2023-04-29T08:33:12.562Z,2720.00
2023-04-29T08:34:12.566Z,2852.00
2023-04-29T08:35:12.548Z,2876.00
2023-04-29T08:36:12.568Z,2900.00
2023-04-29T08:37:12.532Z,2992.00
2023-04-29T08:38:12.525Z,2928.00
2023-04-29T08:39:12.528Z,2948.00
2023-04-29T08:40:12.509Z,2900.00
2023-04-29T08:41:12.528Z,3056.00
2023-04-29T08:42:12.494Z,3284.00
2023-04-29T08:43:12.497Z,3284.00
2023-04-29T08:44:12.488Z,3132.00
2023-04-29T08:45:12.468Z,2888.00
2023-04-29T08:46:12.505Z,2648.00
2023-04-29T08:47:13.099Z,2624.00
2023-04-29T08:48:12.549Z,2976.00
2023-04-29T08:49:12.454Z,3240.00
2023-04-29T08:50:12.701Z,3352.00
2023-04-29T08:51:12.458Z,3504.00
2023-04-29T08:52:12.420Z,3704.00
2023-04-29T08:53:12.410Z,3844.00
2023-04-29T08:54:12.418Z,4076.00
2023-04-29T08:55:12.407Z,4556.00
2023-04-29T08:56:12.418Z,4820.00
2023-04-29T08:57:12.380Z,5092.00
2023-04-29T08:58:12.384Z,5308.00
2023-04-29T08:59:12.365Z,5404.00
2023-04-29T09:00:12.363Z,5376.00
2023-04-29T09:01:12.392Z,5192.00
2023-04-29T09:02:12.353Z,5268.00
2023-04-29T09:03:12.401Z,5496.00
2023-04-29T09:04:12.341Z,5632.00
2023-04-29T09:05:12.322Z,5460.00
2023-04-29T09:06:12.329Z,5224.00
2023-04-29T09:07:12.316Z,5060.00
2023-04-29T09:08:12.295Z,5108.00
2023-04-29T09:09:12.282Z,5376.00
2023-04-29T09:10:12.277Z,5852.00
2023-04-29T09:11:12.299Z,6332.00
2023-04-29T09:12:12.248Z,6620.00
2023-04-29T09:13:12.256Z,7056.00
2023-04-29T09:14:12.243Z,7344.00
2023-04-29T09:15:12.255Z,7604.00
2023-04-29T09:16:12.285Z,8000.00
2023-04-29T09:17:12.217Z,8284.00
2023-04-29T09:18:12.222Z,8624.00
2023-04-29T09:19:12.197Z,8900.00
2023-04-29T09:20:12.190Z,8840.00
2023-04-29T09:21:12.208Z,8628.00
2023-04-29T09:22:12.193Z,8388.00
2023-04-29T09:23:12.197Z,8076.00
2023-04-29T09:24:12.170Z,7944.00
2023-04-29T09:25:12.159Z,7812.00
2023-04-29T09:26:12.174Z,7556.00
2023-04-29T09:27:12.146Z,7104.00
2023-04-29T09:28:12.136Z,6672.00
2023-04-29T09:29:12.125Z,6720.00
2023-04-29T09:30:12.131Z,6660.00
2023-04-29T09:31:12.248Z,6632.00
2023-04-29T09:32:12.111Z,6592.00
2023-04-29T09:33:12.158Z,6664.00
2023-04-29T09:34:12.103Z,6236.00
2023-04-29T09:35:12.089Z,5928.00
2023-04-29T09:36:12.104Z,5784.00
2023-04-29T09:37:12.075Z,5536.00
2023-04-29T09:38:12.082Z,5368.00
2023-04-29T09:39:12.121Z,5512.00
2023-04-29T09:40:12.053Z,5796.00
2023-04-29T09:41:12.072Z,5988.00
2023-04-29T09:42:12.030Z,6204.00
2023-04-29T09:43:12.024Z,6344.00
2023-04-29T09:44:12.012Z,6080.00
2023-04-29T09:45:12.010Z,5868.00
2023-04-29T09:46:12.064Z,6316.00
2023-04-29T09:47:12.033Z,6788.00
2023-04-29T09:48:11.977Z,7164.00
2023-04-29T09:49:11.974Z,7464.00
2023-04-29T09:50:11.980Z,7212.00
2023-04-29T09:51:12.523Z,7196.00
2023-04-29T09:52:11.948Z,7188.00
2023-04-29T09:53:11.955Z,7232.00
2023-04-29T09:54:11.930Z,7248.00
2023-04-29T09:55:11.926Z,7180.00
2023-04-29T09:56:11.952Z,7116.00
2023-04-29T09:57:12.013Z,7136.00
2023-04-29T09:58:11.898Z,7100.00
2023-04-29T09:59:11.889Z,7000.00
2023-04-29T10:00:11.876Z,6792.00
2023-04-29T10:01:11.925Z,6572.00
2023-04-29T10:02:11.875Z,6364.00
2023-04-29T10:03:11.941Z,6152.00
2023-04-29T10:04:11.881Z,6024.00
2023-04-29T10:05:11.903Z,6004.00
2023-04-29T10:06:11.834Z,6112.00
2023-04-29T10:07:11.847Z,6384.00
2023-04-29T10:08:11.828Z,6700.00
2023-04-29T10:09:11.805Z,6956.00
2023-04-29T10:10:11.798Z,7264.00
2023-04-29T10:11:11.795Z,7556.00
2023-04-29T10:12:11.814Z,7780.00
2023-04-29T10:13:11.773Z,7924.00
2023-04-29T10:14:11.759Z,8032.00
2023-04-29T10:15:11.759Z,8024.00
2023-04-29T10:16:11.771Z,7872.00
2023-04-29T10:17:11.761Z,7704.00
2023-04-29T10:18:11.753Z,7568.00
2023-04-29T10:19:11.724Z,7504.00
2023-04-29T10:20:11.731Z,7404.00
2023-04-29T10:21:11.710Z,7284.00
2023-04-29T10:22:11.736Z,7248.00
2023-04-29T10:23:11.691Z,7176.00
2023-04-29T10:24:11.688Z,7116.00
2023-04-29T10:25:11.678Z,7104.00
2023-04-29T10:26:11.681Z,7108.00
2023-04-29T10:27:11.694Z,6968.00
2023-04-29T10:28:11.663Z,6744.00
2023-04-29T10:29:11.666Z,6412.00
2023-04-29T10:30:11.653Z,6036.00
2023-04-29T10:31:11.644Z,5684.00
2023-04-29T10:32:11.643Z,5372.00
2023-04-29T10:33:11.637Z,5024.00
2023-04-29T10:34:11.605Z,4716.00
2023-04-29T10:35:11.596Z,4460.00
2023-04-29T10:36:11.603Z,4248.00
2023-04-29T10:37:11.604Z,4116.00
2023-04-29T10:38:11.573Z,3992.00
2023-04-29T10:39:11.568Z,3836.00
2023-04-29T10:40:11.557Z,3700.00
2023-04-29T10:41:11.552Z,3588.00
2023-04-29T10:42:11.568Z,3528.00
2023-04-29T10:43:11.534Z,3496.00
2023-04-29T10:44:11.535Z,3408.00
2023-04-29T10:45:11.540Z,3292.00
2023-04-29T10:46:11.557Z,3144.00
2023-04-29T10:47:11.529Z,3020.00
2023-04-29T10:48:11.505Z,2900.00
2023-04-29T10:49:11.487Z,2824.00
2023-04-29T10:50:11.482Z,2748.00
2023-04-29T10:51:11.478Z,2728.00
2023-04-29T10:52:11.488Z,2732.00
2023-04-29T10:53:11.465Z,2836.00
2023-04-29T10:54:11.449Z,2920.00
2023-04-29T10:55:11.453Z,2984.00
2023-04-29T10:56:11.434Z,3040.00
2023-04-29T10:57:12.111Z,3128.00
2023-04-29T10:58:11.424Z,3244.00
2023-04-29T10:59:11.424Z,3360.00
2023-04-29T11:00:12.804Z,3496.00
2023-04-29T11:01:11.448Z,3636.00
2023-04-29T11:02:11.422Z,3760.00
2023-04-29T11:03:11.467Z,3912.00
2023-04-29T11:04:11.422Z,4020.00
2023-04-29T11:05:11.364Z,4120.00
2023-04-29T11:06:11.358Z,4232.00
2023-04-29T11:07:11.424Z,4360.00
2023-04-29T11:08:11.350Z,4496.00
2023-04-29T11:09:11.336Z,4632.00
2023-04-29T11:10:11.322Z,4768.00
2023-04-29T11:11:11.320Z,4852.00
2023-04-29T11:12:11.341Z,4888.00
2023-04-29T11:13:11.304Z,4872.00
2023-04-29T11:14:11.288Z,4812.00
2023-04-29T11:15:11.289Z,4688.00
2023-04-29T11:16:11.358Z,4504.00
2023-04-29T11:17:11.304Z,4320.00
2023-04-29T11:18:11.329Z,4176.00
2023-04-29T11:19:11.345Z,4032.00
2023-04-29T11:20:11.249Z,3932.00
2023-04-29T11:21:11.260Z,3828.00
2023-04-29T11:22:11.257Z,3688.00
2023-04-29T11:23:11.227Z,3516.00
2023-04-29T11:24:11.213Z,3380.00
2023-04-29T11:25:11.206Z,3304.00
2023-04-29T11:26:11.209Z,3280.00
2023-04-29T11:27:11.227Z,3304.00
2023-04-29T11:28:11.185Z,3364.00
2023-04-29T11:29:11.179Z,3436.00
2023-04-29T11:30:11.206Z,3576.00
2023-04-29T11:31:11.177Z,3688.00
2023-04-29T11:32:11.260Z,3804.00
2023-04-29T11:33:11.173Z,3952.00
2023-04-29T11:34:11.755Z,4124.00
2023-04-29T11:35:11.132Z,4340.00
2023-04-29T11:36:11.115Z,4516.00
2023-04-29T11:37:11.137Z,4680.00
2023-04-29T11:38:11.107Z,4796.00
2023-04-29T11:39:11.102Z,4868.00
2023-04-29T11:40:11.131Z,4920.00
2023-04-29T11:41:11.092Z,4952.00
2023-04-29T11:42:11.073Z,4916.00
2023-04-29T11:43:11.119Z,4804.00
2023-04-29T11:44:11.069Z,4628.00
2023-04-29T11:45:11.100Z,4496.00
2023-04-29T11:46:11.068Z,4420.00
2023-04-29T11:47:11.059Z,4416.00
2023-04-29T11:48:11.091Z,4468.00
2023-04-29T11:49:11.107Z,4524.00
2023-04-29T11:50:11.108Z,4612.00
2023-04-29T11:51:11.018Z,4696.00
2023-04-29T11:52:11.014Z,4780.00
2023-04-29T11:53:11.040Z,4904.00
2023-04-29T11:54:10.983Z,4996.00
2023-04-29T11:55:10.998Z,5088.00
2023-04-29T11:56:10.978Z,5132.00
2023-04-29T11:57:10.961Z,5216.00
2023-04-29T11:58:11.004Z,5380.00
2023-04-29T11:59:10.952Z,5564.00
2023-04-29T12:00:10.938Z,5772.00
2023-04-29T12:01:10.928Z,5900.00
2023-04-29T12:02:10.971Z,5952.00
2023-04-29T12:03:11.124Z,5936.00
2023-04-29T12:04:11.066Z,5924.00
2023-04-29T12:05:11.007Z,5960.00
2023-04-29T12:06:10.886Z,5976.00
2023-04-29T12:07:10.882Z,6008.00
2023-04-29T12:08:10.902Z,6144.00
2023-04-29T12:09:10.862Z,6328.00
2023-04-29T12:10:11.062Z,6560.00
2023-04-29T12:11:10.850Z,6796.00
2023-04-29T12:12:10.838Z,6984.00
2023-04-29T12:13:10.856Z,7180.00
2023-04-29T12:14:10.847Z,7404.00
2023-04-29T12:15:10.845Z,7576.00
2023-04-29T12:16:10.834Z,7748.00
2023-04-29T12:17:10.800Z,7924.00
2023-04-29T12:18:10.829Z,8152.00
2023-04-29T12:19:10.781Z,8380.00
2023-04-29T12:20:11.157Z,8620.00
2023-04-29T12:21:10.778Z,8856.00
2023-04-29T12:22:10.763Z,9112.00
2023-04-29T12:23:10.768Z,9396.00
2023-04-29T12:24:10.743Z,9652.00
2023-04-29T12:25:10.744Z,9820.00
2023-04-29T12:26:10.736Z,9868.00
2023-04-29T12:27:10.730Z,10008.00
2023-04-29T12:28:10.739Z,10180.00